Pagrindinis puslapis
METAR-TAF:

METAR-TAF

Oro uostai :

Ørsta-Volda, Norvegija

platuma: 62-11N, ilguma: 006-04E, Aukštis: 7 m

Dabartinis oras

Ataskaita buvo paskelbta 40 minutes, ne 09:20 UTC
Vėjas 2 kt nuo kintamojo kryptimis
Temperatūra 1°C
Drėgmė 80%
Slėgis 988 hPa
Matomumas 10 km arba daugiau
Mažai debesys ne aukštis 2000 ft
Su prošvaistėmis ne aukštis 3800 ft
Liūtis kaimynystėje

METAR: ENOV 090920Z VRB02KT 9999 VCSH FEW020 BKN038 01/M02 Q0988 RMK WIND 2175FT 01013KT

Laikas: 11:00 (10:00 UTC)


TAF: trūkstamas

Orai ataskaitas ir orų prognozės (METAR, TAF).

turimą stotys yra geltonos ir raudonos taškus žemėlapyje.

Perkelti pele per norėdami pamatyti stoties vardą.

Tada spustelėkite, norėdami matyti oro stebėjimo ir prognozės.

Norėdami pakeisti žemėlapį: spustelėkite ant žalios mygtukų su juodo kryžiaus žemyn,; žalią mygtuką su brūkšneliu, jei norite nutolinti; arba žalių rodyklių gretimoms žemėlapius.


METAR-TAF: